Time;durP1;ratioP1;P1;durP2;ratioP2;P2;SDS_P1;SDS_P2;PMS_P1;PMS_P2;Temp;Humidity;BMP_temperature;BMP_pressure;BME280_temperature;BME280_humidity;BME280_pressure;Samples;Min_cycle;Max_cycle;Signal;HPM_P1;HPM_P2
2022/05/20 00:00:46;;;;;;;2.83;1.83;;;21.30;99.90;;;;;;4976601;28;20034;-78
2022/05/20 00:03:11;;;;;;;4.68;1.77;;;21.20;99.90;;;;;;4975028;28;20037;-80
2022/05/20 00:05:37;;;;;;;2.45;1.70;;;21.20;99.90;;;;;;4975401;28;20023;-80
2022/05/20 00:08:03;;;;;;;2.97;1.63;;;21.20;99.90;;;;;;4975243;28;20122;-80
2022/05/20 00:10:30;;;;;;;4.30;1.73;;;21.10;99.90;;;;;;4976138;28;20031;-79
2022/05/20 00:12:58;;;;;;;3.20;1.60;;;21.20;99.90;;;;;;4974451;28;20472;-80
2022/05/20 00:15:24;;;;;;;4.38;2.15;;;21.10;99.90;;;;;;4975381;28;20117;-80
2022/05/20 00:17:50;;;;;;;3.05;2.03;;;21.10;99.90;;;;;;4976017;28;20030;-82
2022/05/20 00:20:18;;;;;;;2.92;1.98;;;21.10;99.90;;;;;;4976145;28;20030;-80
2022/05/20 00:22:44;;;;;;;2.13;1.70;;;21.10;99.90;;;;;;4975464;28;20498;-80
2022/05/20 00:27:56;;;;;;;3.35;1.90;;;21.10;99.90;;;;;;4975707;28;20049;-80
2022/05/20 00:30:24;;;;;;;4.93;2.00;;;21.10;99.90;;;;;;4974924;28;20039;-80
2022/05/20 00:32:49;;;;;;;6.35;2.13;;;21.00;99.90;;;;;;4975376;28;20033;-86
2022/05/20 00:35:15;;;;;;;3.45;1.83;;;21.00;99.90;;;;;;4957867;28;20030;-77
2022/05/20 00:37:41;;;;;;;2.65;1.40;;;21.00;99.90;;;;;;4974562;28;20038;-78
2022/05/20 00:40:09;;;;;;;3.22;1.80;;;21.00;99.90;;;;;;4974117;28;20035;-77
2022/05/20 00:42:35;;;;;;;2.88;2.10;;;20.90;99.90;;;;;;4958271;28;20126;-78
2022/05/20 00:45:06;;;;;;;4.45;1.95;;;20.90;99.90;;;;;;4974140;28;20059;-78
2022/05/20 00:47:32;;;;;;;2.15;1.65;;;20.90;99.90;;;;;;4974544;28;20045;-78
2022/05/20 00:50:00;;;;;;;3.58;1.88;;;20.80;99.90;;;;;;4973939;28;20113;-78
2022/05/20 00:52:30;;;;;;;3.92;1.95;;;20.80;99.90;;;;;;4974231;28;20031;-78
2022/05/20 00:54:59;;;;;;;2.60;1.90;;;20.70;99.90;;;;;;4973861;28;20054;-78
2022/05/20 00:57:29;;;;;;;3.72;1.80;;;20.70;99.90;;;;;;4973977;28;20041;-78
2022/05/20 01:00:05;;;;;;;5.97;2.30;;;20.60;99.90;;;;;;4973831;28;20030;-78
2022/05/20 01:02:32;;;;;;;4.88;2.35;;;20.50;99.90;;;;;;4974703;28;20035;-78
2022/05/20 01:05:03;;;;;;;2.25;1.70;;;20.50;99.90;;;;;;4974792;28;20027;-78
2022/05/20 01:07:31;;;;;;;5.53;2.10;;;20.50;99.90;;;;;;4975254;28;20090;-79
2022/05/20 01:09:57;;;;;;;4.18;2.13;;;20.50;99.90;;;;;;4973737;28;20429;-79
2022/05/20 01:12:24;;;;;;;4.30;2.17;;;20.50;99.90;;;;;;4975435;28;20081;-79
2022/05/20 01:14:51;;;;;;;4.18;2.35;;;20.40;99.90;;;;;;4957984;28;20030;-82
2022/05/20 01:17:17;;;;;;;2.90;2.30;;;20.50;99.90;;;;;;4975352;28;20030;-80
2022/05/20 01:20:02;;;;;;;5.15;2.20;;;20.50;99.90;;;;;;4975343;28;20035;-79
2022/05/20 01:22:53;;;;;;;3.58;2.35;;;20.50;99.90;;;;;;4974087;28;20026;-79
2022/05/20 01:25:20;;;;;;;4.32;2.45;;;20.50;99.90;;;;;;4939931;28;20227;-79
2022/05/20 01:27:46;;;;;;;3.83;2.45;;;20.50;99.90;;;;;;4973702;28;20284;-79
2022/05/20 01:30:15;;;;;;;5.60;2.83;;;20.50;99.90;;;;;;4973707;28;20066;-79
2022/05/20 01:32:40;;;;;;;4.07;2.70;;;20.50;99.90;;;;;;4974114;28;20113;-79
2022/05/20 01:35:11;;;;;;;5.22;2.70;;;20.50;99.90;;;;;;4974426;28;20089;-79
2022/05/20 01:37:36;;;;;;;8.57;3.10;;;20.40;99.90;;;;;;4974883;28;20050;-78
2022/05/20 01:40:03;;;;;;;6.30;2.75;;;20.40;99.90;;;;;;4957484;28;20472;-81
2022/05/20 01:42:47;;;;;;;3.75;2.75;;;20.40;99.90;;;;;;4974356;28;20027;-81
2022/05/20 01:45:21;;;;;;;4.35;3.22;;;20.40;99.90;;;;;;4974868;28;20073;-81
2022/05/20 01:48:05;;;;;;;6.22;3.33;;;20.40;99.90;;;;;;4975309;28;20034;-81
2022/05/20 01:50:53;;;;;;;5.97;3.10;;;20.40;99.90;;;;;;4974085;28;20031;-81
2022/05/20 01:53:31;;;;;;;4.60;2.97;;;20.40;99.90;;;;;;4958185;28;20031;-82
2022/05/20 01:55:59;;;;;;;5.20;2.90;;;20.40;99.90;;;;;;4974210;28;20117;-79
2022/05/20 01:58:51;;;;;;;5.07;3.28;;;20.40;99.90;;;;;;4957741;28;20070;-78
2022/05/20 02:01:20;;;;;;;;;;;20.40;99.90;;;;;;4973725;28;20045;-78
2022/05/20 02:04:02;;;;;;;7.25;3.00;;;20.50;99.90;;;;;;4973683;28;20009;-79
2022/05/20 02:06:39;;;;;;;7.32;3.45;;;20.40;99.90;;;;;;4974013;28;20465;-80
2022/05/20 02:09:44;;;;;;;4.80;3.95;;;20.40;99.90;;;;;;4973398;28;20117;-79
2022/05/20 02:12:14;;;;;;;6.20;3.90;;;20.30;99.90;;;;;;4880123;29;20032;-78
2022/05/20 02:14:41;;;;;;;7.55;3.47;;;20.30;99.90;;;;;;4961628;28;20041;-79
2022/05/20 02:17:26;;;;;;;4.53;3.47;;;20.30;99.90;;;;;;4972917;28;20058;-79
2022/05/20 02:19:57;;;;;;;4.95;3.40;;;20.30;99.90;;;;;;4975003;28;20488;-79
2022/05/20 02:22:29;;;;;;;6.32;3.67;;;20.20;99.90;;;;;;4973244;28;20098;-79
2022/05/20 02:24:57;;;;;;;7.40;3.78;;;20.20;99.90;;;;;;4972950;28;20385;-80
2022/05/20 02:27:27;;;;;;;6.38;3.60;;;20.20;99.90;;;;;;4972887;28;20035;-79
2022/05/20 02:30:18;;;;;;;7.85;4.18;;;20.20;99.90;;;;;;4973455;28;20035;-79
2022/05/20 02:32:51;;;;;;;9.63;4.03;;;20.20;99.90;;;;;;4973120;28;20066;-80
2022/05/20 02:35:17;;;;;;;9.27;4.40;;;20.20;99.90;;;;;;4975741;28;20498;-79
2022/05/20 02:37:43;;;;;;;8.57;4.13;;;20.10;99.90;;;;;;4977461;28;20109;-80
2022/05/20 02:40:12;;;;;;;6.50;3.65;;;20.20;99.90;;;;;;4976506;28;20130;-80
2022/05/20 02:42:38;;;;;;;6.72;3.60;;;20.20;99.90;;;;;;4974262;28;20038;-80
2022/05/20 02:45:05;;;;;;;10.27;4.07;;;20.20;99.90;;;;;;4976397;28;20027;-81
2022/05/20 02:47:32;;;;;;;6.43;3.72;;;20.20;99.90;;;;;;4977167;28;20038;-80
2022/05/20 02:50:07;;;;;;;7.80;3.65;;;20.20;99.90;;;;;;4976821;28;20089;-81
2022/05/20 02:52:34;;;;;;;5.90;3.92;;;20.20;99.90;;;;;;4977021;28;20486;-80
2022/05/20 02:55:00;;;;;;;5.63;3.78;;;20.20;99.90;;;;;;4977393;28;20376;-81
2022/05/20 02:57:26;;;;;;;6.45;3.50;;;20.20;99.90;;;;;;4977030;28;20031;-83
2022/05/20 03:05:21;;;;;;;6.30;3.90;;;20.20;99.90;;;;;;4977549;28;20038;-82
2022/05/20 03:07:46;;;;;;;6.30;3.35;;;20.20;99.90;;;;;;4976800;28;20437;-82
2022/05/20 03:10:12;;;;;;;7.50;4.28;;;20.20;99.90;;;;;;4976261;28;20074;-82
2022/05/20 03:12:38;;;;;;;5.85;3.95;;;20.10;99.90;;;;;;4977851;28;20067;-83
2022/05/20 03:15:07;;;;;;;7.07;4.10;;;20.20;99.90;;;;;;4976637;28;20062;-81
2022/05/20 03:17:33;;;;;;;7.55;4.28;;;20.20;99.90;;;;;;4977313;28;20034;-80
2022/05/20 03:19:58;;;;;;;8.02;4.40;;;20.20;99.90;;;;;;4976066;28;20034;-82
2022/05/20 03:22:24;;;;;;;5.65;3.83;;;20.20;99.90;;;;;;4960708;28;20027;-81
2022/05/20 03:24:50;;;;;;;8.82;4.20;;;20.20;99.90;;;;;;4977805;28;20480;-81
2022/05/20 03:27:17;;;;;;;7.28;4.10;;;20.10;99.90;;;;;;4976132;28;20031;-82
2022/05/20 03:29:44;;;;;;;6.25;4.15;;;20.10;99.90;;;;;;4976564;28;20034;-82
2022/05/20 03:32:10;;;;;;;7.00;4.60;;;20.10;99.90;;;;;;4976844;28;20054;-82
2022/05/20 03:34:37;;;;;;;6.30;3.88;;;20.10;99.90;;;;;;4976123;28;20037;-82
2022/05/20 03:37:02;;;;;;;6.78;4.07;;;20.00;99.90;;;;;;4976586;28;20041;-79
2022/05/20 03:39:28;;;;;;;7.50;3.70;;;20.10;99.90;;;;;;4975438;28;20031;-79
2022/05/20 03:41:55;;;;;;;6.07;3.85;;;20.20;99.90;;;;;;4959465;28;20457;-79
2022/05/20 03:44:21;;;;;;;9.80;4.05;;;20.10;99.90;;;;;;4959123;28;20026;-83
2022/05/20 03:46:53;;;;;;;7.03;4.10;;;20.10;99.90;;;;;;4976074;28;20030;-82
2022/05/20 03:49:22;;;;;;;5.13;4.13;;;20.10;99.90;;;;;;4975232;28;20205;-82
2022/05/20 03:51:49;;;;;;;8.88;4.30;;;20.00;99.90;;;;;;4975888;28;20022;-82
2022/05/20 03:54:16;;;;;;;8.80;3.58;;;20.00;99.90;;;;;;4975359;28;20038;-80
2022/05/20 03:56:42;;;;;;;7.25;3.85;;;19.90;99.90;;;;;;4975419;28;20035;-80
2022/05/20 03:59:09;;;;;;;8.05;4.10;;;19.90;99.90;;;;;;4975423;28;20046;-80
2022/05/20 04:04:20;;;;;;;9.10;4.30;;;19.80;99.90;;;;;;4976506;28;20057;-80
2022/05/20 04:06:46;;;;;;;6.75;4.32;;;19.90;99.90;;;;;;4959769;28;20034;-80
2022/05/20 04:09:11;;;;;;;8.35;3.95;;;19.80;99.90;;;;;;4975125;28;20515;-81
2022/05/20 04:11:38;;;;;;;6.68;4.30;;;19.80;99.90;;;;;;4975385;28;20117;-80
2022/05/20 04:14:05;;;;;;;5.65;4.50;;;19.80;99.90;;;;;;4975028;28;20030;-82
2022/05/20 04:16:30;;;;;;;7.10;4.72;;;19.80;99.90;;;;;;4975419;28;20046;-80
2022/05/20 04:18:57;;;;;;;7.63;4.32;;;19.80;99.90;;;;;;4975121;28;20461;-80
2022/05/20 04:21:22;;;;;;;7.55;4.57;;;19.70;99.90;;;;;;4959065;28;20647;-81
2022/05/20 04:23:48;;;;;;;8.30;4.30;;;19.70;99.90;;;;;;4975218;28;20134;-80
2022/05/20 04:26:14;;;;;;;9.63;4.10;;;19.80;99.90;;;;;;4974946;28;20034;-81
2022/05/20 04:28:40;;;;;;;7.10;4.40;;;19.70;99.90;;;;;;4976313;28;20038;-81
2022/05/20 04:31:08;;;;;;;4.95;4.03;;;19.70;99.90;;;;;;4958644;28;20030;-80
2022/05/20 04:33:33;;;;;;;6.68;3.90;;;19.60;99.90;;;;;;4958922;28;20038;-81
2022/05/20 04:35:59;;;;;;;5.88;4.00;;;19.50;99.90;;;;;;4974953;28;20027;-80
2022/05/20 04:38:26;;;;;;;7.03;4.30;;;19.50;99.90;;;;;;4974325;28;20035;-83
2022/05/20 04:49:08;;;;;;;7.25;4.30;;;19.60;99.90;;;;;;4975759;28;20030;-81
2022/05/20 04:51:34;;;;;;;7.78;4.70;;;19.60;99.90;;;;;;4974910;28;20030;-80
2022/05/20 04:56:44;;;;;;;8.55;4.30;;;19.60;99.90;;;;;;4975427;28;20085;-80
2022/05/20 04:59:09;;;;;;;7.40;4.30;;;19.70;99.90;;;;;;4975317;28;20030;-79
2022/05/20 05:01:35;;;;;;;6.63;4.28;;;19.70;99.90;;;;;;4974523;28;20113;-77
2022/05/20 05:04:01;;;;;;;6.85;3.95;;;19.70;99.90;;;;;;4974326;28;20022;-77
2022/05/20 05:06:26;;;;;;;5.65;4.05;;;19.70;99.90;;;;;;4974058;28;20027;-77
2022/05/20 05:08:53;;;;;;;7.25;4.43;;;19.80;99.90;;;;;;4975160;28;20034;-77
2022/05/20 05:11:20;;;;;;;5.88;3.97;;;19.80;99.90;;;;;;4973540;28;20118;-77
2022/05/20 05:13:45;;;;;;;5.90;4.57;;;19.80;99.90;;;;;;4958101;28;20027;-77
2022/05/20 05:16:11;;;;;;;6.50;4.07;;;19.80;99.90;;;;;;4973526;28;20026;-78
2022/05/20 05:18:37;;;;;;;7.18;4.53;;;19.80;99.90;;;;;;4973961;28;20392;-79
2022/05/20 05:21:03;;;;;;;6.85;4.70;;;19.90;99.90;;;;;;4973943;28;20054;-79
2022/05/20 05:23:29;;;;;;;7.78;4.40;;;19.80;99.90;;;;;;4973356;28;20043;-79
2022/05/20 05:25:55;;;;;;;7.07;4.35;;;19.80;99.90;;;;;;4958079;28;20027;-79
2022/05/20 05:28:21;;;;;;;7.03;4.30;;;19.90;99.90;;;;;;4973685;28;20465;-79
2022/05/20 05:30:51;;;;;;;6.20;4.30;;;19.90;99.90;;;;;;4974151;28;20514;-79
2022/05/20 05:33:18;;;;;;;6.50;4.22;;;19.90;99.90;;;;;;4973566;28;20038;-80
2022/05/20 05:35:44;;;;;;;6.35;4.30;;;20.00;99.90;;;;;;4975425;28;20058;-80
2022/05/20 05:38:10;;;;;;;8.60;4.78;;;20.00;99.90;;;;;;4973464;28;20125;-80
2022/05/20 05:40:36;;;;;;;6.60;4.25;;;20.00;99.90;;;;;;4975058;28;20417;-79
2022/05/20 05:43:03;;;;;;;7.40;4.55;;;20.00;99.90;;;;;;4973871;28;20039;-79
2022/05/20 05:45:31;;;;;;;6.75;4.35;;;20.10;99.90;;;;;;4974722;28;20034;-79
2022/05/20 05:47:59;;;;;;;7.57;5.32;;;20.10;99.90;;;;;;4973605;28;20031;-81
2022/05/20 05:50:26;;;;;;;11.45;5.40;;;20.10;99.90;;;;;;4973638;28;20026;-81
2022/05/20 05:53:12;;;;;;;7.22;4.55;;;20.10;99.90;;;;;;4973958;28;20027;-81
2022/05/20 05:55:38;;;;;;;8.95;5.00;;;20.10;99.90;;;;;;4974268;28;20026;-81
2022/05/20 05:58:04;;;;;;;11.48;5.07;;;20.10;99.90;;;;;;4973851;28;20034;-80
2022/05/20 06:00:30;;;;;;;12.20;5.05;;;20.10;99.90;;;;;;4974645;28;20377;-81
2022/05/20 06:02:55;;;;;;;8.63;5.35;;;20.10;99.90;;;;;;4974082;28;20030;-79
2022/05/20 06:05:21;;;;;;;7.40;4.68;;;20.10;99.90;;;;;;4973612;28;20031;-81
2022/05/20 06:07:47;;;;;;;10.38;4.63;;;20.20;99.90;;;;;;4974844;28;20475;-80
2022/05/20 06:10:13;;;;;;;9.07;4.85;;;20.30;99.90;;;;;;4976809;28;20085;-81
2022/05/20 06:12:39;;;;;;;7.80;4.55;;;20.30;99.90;;;;;;4977446;28;20027;-80
2022/05/20 06:15:07;;;;;;;10.70;4.32;;;20.30;99.90;;;;;;4977612;28;20029;-80
2022/05/20 06:17:33;;;;;;;9.80;4.97;;;20.30;99.90;;;;;;4978415;28;20499;-81
2022/05/20 06:20:00;;;;;;;7.78;4.60;;;20.30;99.90;;;;;;4977596;28;20026;-80
2022/05/20 06:22:26;;;;;;;6.22;4.45;;;20.30;99.90;;;;;;4976929;28;20033;-80
2022/05/20 06:24:52;;;;;;;9.38;4.88;;;20.40;99.90;;;;;;4978674;28;20108;-80
2022/05/20 06:27:17;;;;;;;8.25;5.10;;;20.40;99.90;;;;;;4976658;28;20030;-80
2022/05/20 06:29:47;;;;;;;8.75;4.50;;;20.40;99.90;;;;;;4977215;28;20141;-80
2022/05/20 06:32:13;;;;;;;8.73;4.50;;;20.40;99.90;;;;;;4977690;28;20112;-81
2022/05/20 06:40:10;;;;;;;9.18;4.43;;;20.60;99.90;;;;;;4977832;28;20038;-80
2022/05/20 06:42:36;;;;;;;5.07;3.92;;;20.70;99.90;;;;;;4976686;28;20088;-78
2022/05/20 06:45:03;;;;;;;7.03;4.13;;;20.70;99.90;;;;;;4976384;28;20097;-80
2022/05/20 06:47:29;;;;;;;7.88;4.60;;;20.70;99.90;;;;;;4972512;28;20473;-79
2022/05/20 06:49:55;;;;;;;8.05;4.20;;;20.70;99.90;;;;;;4957188;28;20033;-79
2022/05/20 06:52:20;;;;;;;8.70;4.50;;;20.80;99.90;;;;;;4959362;28;20033;-80
2022/05/20 06:54:46;;;;;;;7.93;4.05;;;20.90;99.90;;;;;;4959966;28;20031;-79
2022/05/20 06:57:12;;;;;;;14.13;4.40;;;20.90;99.90;;;;;;4974940;28;20122;-80
2022/05/20 06:59:37;;;;;;;10.10;3.78;;;21.00;99.90;;;;;;4976004;28;20033;-79
2022/05/20 07:02:03;;;;;;;8.55;4.18;;;21.00;99.90;;;;;;4974968;28;20022;-78
2022/05/20 07:04:29;;;;;;;9.65;4.43;;;21.00;99.90;;;;;;4974102;28;20487;-78
2022/05/20 07:07:00;;;;;;;10.05;4.70;;;21.00;99.90;;;;;;4975459;28;20081;-81
2022/05/20 07:09:26;;;;;;;11.90;4.40;;;21.00;99.90;;;;;;4975516;28;20118;-80
2022/05/20 07:11:52;;;;;;;7.50;4.05;;;21.10;99.90;;;;;;4960405;28;20117;-79
2022/05/20 07:14:17;;;;;;;6.57;3.83;;;21.10;99.90;;;;;;4976799;28;20027;-84
2022/05/20 07:16:43;;;;;;;8.23;4.20;;;21.10;99.90;;;;;;4976361;28;20050;-81
2022/05/20 07:19:10;;;;;;;7.55;4.35;;;21.20;99.90;;;;;;4977320;28;20023;-81
2022/05/20 07:21:35;;;;;;;9.13;4.55;;;21.30;99.90;;;;;;4971511;28;20039;-82
2022/05/20 07:24:04;;;;;;;5.95;4.20;;;21.30;99.90;;;;;;4977777;28;20125;-81
2022/05/20 07:26:31;;;;;;;5.47;4.40;;;21.40;99.90;;;;;;4975184;28;20281;-80
2022/05/20 07:28:57;;;;;;;8.70;4.35;;;21.40;99.90;;;;;;4979207;28;20034;-80
2022/05/20 07:31:24;;;;;;;10.13;4.63;;;21.40;99.90;;;;;;4976488;28;20027;-81
2022/05/20 07:33:51;;;;;;;6.57;4.45;;;21.40;99.90;;;;;;4975860;28;20472;-80
2022/05/20 07:36:17;;;;;;;7.18;4.03;;;21.40;99.90;;;;;;4975544;28;20113;-79
2022/05/20 07:38:43;;;;;;;8.23;4.50;;;21.50;99.90;;;;;;4975840;28;20082;-80
2022/05/20 07:41:09;;;;;;;7.32;4.30;;;21.50;99.90;;;;;;4975580;28;20034;-80
2022/05/20 07:43:34;;;;;;;6.18;4.20;;;21.50;99.90;;;;;;4975241;28;20090;-79
2022/05/20 07:46:01;;;;;;;8.20;4.55;;;21.60;99.90;;;;;;4976424;28;20102;-81
2022/05/20 07:48:26;;;;;;;13.93;4.68;;;21.60;99.90;;;;;;4974695;28;20062;-83
2022/05/20 07:51:00;;;;;;;5.97;4.30;;;21.70;99.90;;;;;;4975573;28;20062;-81
2022/05/20 07:53:35;;;;;;;7.82;3.95;;;21.80;99.90;;;;;;4976098;28;20022;-81
2022/05/20 07:56:17;;;;;;;8.20;4.60;;;21.80;99.90;;;;;;4976512;28;20408;-79
2022/05/20 07:58:51;;;;;;;8.07;4.35;;;21.90;99.90;;;;;;4975335;28;20389;-81
2022/05/20 08:01:24;;;;;;;6.47;4.38;;;21.90;99.90;;;;;;4974871;28;20033;-80
2022/05/20 08:06:47;;;;;;;7.85;3.85;;;22.10;99.90;;;;;;4976347;28;20033;-81
2022/05/20 08:09:13;;;;;;;10.13;4.55;;;22.20;99.90;;;;;;4972005;28;20034;-90
2022/05/20 08:11:38;;;;;;;10.05;4.47;;;22.30;99.90;;;;;;4965445;28;20031;-91
2022/05/20 08:14:04;;;;;;;10.05;4.38;;;22.40;99.90;;;;;;4984228;28;20054;-94
2022/05/20 08:16:30;;;;;;;6.53;4.20;;;22.50;99.90;;;;;;4983265;28;20097;-81
2022/05/20 08:18:56;;;;;;;8.13;4.03;;;22.50;99.90;;;;;;4973454;28;20106;-78
2022/05/20 08:21:22;;;;;;;6.95;4.18;;;22.60;99.90;;;;;;4972766;28;20042;-79
2022/05/20 08:23:47;;;;;;;8.75;3.90;;;22.70;99.90;;;;;;4972844;28;20429;-79
2022/05/20 08:26:17;;;;;;;6.03;3.95;;;22.80;99.90;;;;;;4956453;28;20457;-80
2022/05/20 08:28:44;;;;;;;8.88;5.07;;;22.90;99.90;;;;;;4973059;28;20522;-79
2022/05/20 08:31:10;;;;;;;11.52;4.78;;;23.00;99.90;;;;;;4972561;28;20066;-79
2022/05/20 08:33:35;;;;;;;11.27;5.45;;;23.00;99.90;;;;;;4971976;28;20054;-79
2022/05/20 08:36:03;;;;;;;10.18;4.80;;;23.10;99.90;;;;;;4973988;28;20106;-79
2022/05/20 08:38:29;;;;;;;8.48;4.93;;;23.20;99.90;;;;;;4972501;28;20039;-82
2022/05/20 08:40:57;;;;;;;12.48;5.07;;;23.20;99.90;;;;;;4973780;28;20023;-83
2022/05/20 08:43:28;;;;;;;7.78;5.20;;;23.30;99.90;;;;;;4975656;28;20039;-83
2022/05/20 08:45:54;;;;;;;6.25;4.25;;;23.40;99.90;;;;;;4973835;28;20035;-83
2022/05/20 08:48:20;;;;;;;7.53;4.38;;;23.50;99.90;;;;;;4974517;28;20031;-83
2022/05/20 08:50:51;;;;;;;11.32;4.70;;;23.50;99.70;;;;;;4975996;28;20105;-84
2022/05/20 08:53:30;;;;;;;7.95;4.40;;;23.50;99.90;;;;;;4973406;28;20114;-83
2022/05/20 08:56:04;;;;;;;6.40;4.22;;;23.60;99.90;;;;;;4975142;28;20031;-83
2022/05/20 08:58:32;;;;;;;8.25;4.13;;;23.70;99.40;;;;;;4973412;28;20046;-83
2022/05/20 09:00:58;;;;;;;7.20;4.63;;;23.70;99.20;;;;;;4957666;28;20105;-82
2022/05/20 09:03:26;;;;;;;5.45;4.00;;;23.80;99.10;;;;;;4975390;28;20440;-81
2022/05/20 09:06:11;;;;;;;6.50;3.90;;;23.80;99.00;;;;;;4972692;28;20037;-80
2022/05/20 09:08:37;;;;;;;5.90;3.90;;;23.90;98.50;;;;;;4973299;28;20034;-79
2022/05/20 09:11:07;;;;;;;8.52;4.28;;;24.00;98.20;;;;;;4981493;28;20023;-80
2022/05/20 09:16:26;;;;;;;8.80;3.95;;;24.10;98.10;;;;;;4968050;28;20396;-83
2022/05/20 09:19:12;;;;;;;6.95;3.95;;;24.20;97.80;;;;;;4974371;28;20037;-82
2022/05/20 09:22:11;;;;;;;7.80;3.80;;;24.30;97.20;;;;;;4973405;28;20031;-82
2022/05/20 09:24:43;;;;;;;9.25;3.95;;;24.40;96.90;;;;;;4957174;28;20047;-82
2022/05/20 09:27:11;;;;;;;4.82;3.47;;;24.40;96.50;;;;;;4973930;28;20038;-83
2022/05/20 09:30:03;;;;;;;6.05;3.97;;;24.50;96.30;;;;;;4957100;28;20065;-81
2022/05/20 09:32:40;;;;;;;6.15;3.60;;;24.60;95.70;;;;;;4973935;28;20027;-83
2022/05/20 09:35:18;;;;;;;7.88;4.05;;;24.70;95.80;;;;;;4973733;28;20038;-83
2022/05/20 09:37:49;;;;;;;7.68;4.43;;;24.70;95.60;;;;;;4974617;28;20038;-83
2022/05/20 09:40:31;;;;;;;9.13;3.90;;;24.80;95.20;;;;;;4973141;28;20027;-83
2022/05/20 09:43:25;;;;;;;6.93;4.43;;;24.90;95.10;;;;;;4973758;28;20526;-82
2022/05/20 09:45:52;;;;;;;8.88;3.83;;;24.90;94.80;;;;;;4973386;28;20388;-83
2022/05/20 09:48:55;;;;;;;5.90;4.00;;;25.00;94.90;;;;;;4957217;28;20034;-82
2022/05/20 09:51:49;;;;;;;7.80;4.13;;;25.10;95.20;;;;;;4971754;28;20428;-82
2022/05/20 09:54:20;;;;;;;7.32;3.85;;;25.20;95.00;;;;;;4987682;28;20112;-82
2022/05/20 09:57:23;;;;;;;5.82;3.75;;;25.30;94.70;;;;;;4974623;28;20050;-82
2022/05/20 09:59:56;;;;;;;7.32;3.40;;;25.40;94.30;;;;;;4954141;29;20036;-82
2022/05/20 10:02:52;;;;;;;8.00;3.63;;;25.50;94.00;;;;;;4984840;28;20030;-82
2022/05/20 10:05:33;;;;;;;4.78;3.25;;;25.60;93.50;;;;;;4974169;28;20031;-82
2022/05/20 10:08:07;;;;;;;5.50;3.50;;;25.80;93.00;;;;;;4954425;29;20055;-82
2022/05/20 10:10:42;;;;;;;7.32;4.22;;;25.90;92.90;;;;;;4960647;28;20464;-82
2022/05/20 10:13:17;;;;;;;6.47;3.63;;;25.90;92.70;;;;;;4973198;28;20085;-83
2022/05/20 10:15:46;;;;;;;9.60;3.42;;;26.00;92.60;;;;;;4973409;28;20169;-81
2022/05/20 10:18:36;;;;;;;9.05;3.70;;;26.10;92.20;;;;;;4957159;28;20047;-82
2022/05/20 10:21:08;;;;;;;8.55;3.33;;;26.20;90.20;;;;;;4960570;28;20023;-82
2022/05/20 10:23:53;;;;;;;6.47;3.28;;;26.30;90.50;;;;;;4956437;28;20452;-83
2022/05/20 10:26:27;;;;;;;5.55;3.28;;;26.30;89.40;;;;;;4972780;28;20042;-82
2022/05/20 10:34:54;;;;;;;10.40;3.63;;;26.50;88.90;;;;;;4960260;28;20041;-83
2022/05/20 10:37:58;;;;;;;6.57;3.65;;;26.60;89.70;;;;;;4972745;28;20043;-83
2022/05/20 10:40:34;;;;;;;5.43;2.78;;;26.90;86.50;;;;;;4956668;28;20055;-83
2022/05/20 10:43:29;;;;;;;7.63;2.75;;;27.20;84.80;;;;;;4973357;28;20452;-83
2022/05/20 10:48:50;;;;;;;5.75;2.83;;;27.60;83.00;;;;;;4974084;28;20033;-83
2022/05/20 10:51:54;;;;;;;4.97;2.70;;;27.70;80.40;;;;;;4953512;29;20175;-83
2022/05/20 10:54:37;;;;;;;3.75;2.70;;;27.70;78.70;;;;;;4969934;28;20039;-83
2022/05/20 10:57:24;;;;;;;6.85;3.35;;;27.80;78.00;;;;;;4960092;28;20045;-84
2022/05/20 11:00:10;;;;;;;7.13;2.60;;;28.00;77.70;;;;;;4957346;29;20031;-83
2022/05/20 11:02:57;;;;;;;5.40;2.90;;;28.00;75.60;;;;;;4959568;28;20081;-83
2022/05/20 11:05:51;;;;;;;6.82;2.60;;;28.00;75.60;;;;;;4959881;28;20027;-82
2022/05/20 11:08:25;;;;;;;4.40;2.95;;;28.10;74.20;;;;;;4957049;28;20054;-80
2022/05/20 11:11:28;;;;;;;5.90;2.63;;;28.10;73.80;;;;;;4957036;29;20027;-84
2022/05/20 11:14:17;;;;;;;9.93;2.90;;;28.20;75.20;;;;;;4970346;28;20535;-83
2022/05/20 11:17:08;;;;;;;5.25;2.58;;;28.30;71.30;;;;;;4960089;28;20027;-83
2022/05/20 11:20:18;;;;;;;5.75;2.72;;;28.50;70.00;;;;;;4956320;29;20027;-84
2022/05/20 11:23:02;;;;;;;5.47;2.78;;;28.60;69.10;;;;;;4949265;28;20502;-83
2022/05/20 11:25:53;;;;;;;10.07;2.80;;;28.60;69.80;;;;;;4956454;29;20046;-83
2022/05/20 11:28:37;;;;;;;9.07;2.80;;;28.60;69.70;;;;;;4972843;28;20058;-82
2022/05/20 11:31:17;;;;;;;5.88;2.92;;;28.60;69.80;;;;;;4956394;28;20276;-83
2022/05/20 11:33:53;;;;;;;6.63;2.70;;;28.60;65.80;;;;;;4968644;28;20050;-83
2022/05/20 11:36:32;;;;;;;3.42;2.45;;;28.60;66.00;;;;;;4956484;28;20043;-82
2022/05/20 11:39:17;;;;;;;5.35;2.47;;;28.60;65.00;;;;;;4973161;28;20038;-83
2022/05/20 11:41:48;;;;;;;6.93;2.65;;;28.70;65.00;;;;;;4959516;28;20089;-83
2022/05/20 11:44:39;;;;;;;7.60;2.15;;;28.70;63.70;;;;;;4961641;28;20030;-83
2022/05/20 11:47:14;;;;;;;3.83;2.45;;;28.80;62.30;;;;;;4975587;28;20033;-82
2022/05/20 11:49:46;;;;;;;6.22;2.40;;;28.90;62.50;;;;;;4955176;29;20050;-83
2022/05/20 11:52:49;;;;;;;8.68;2.30;;;28.90;62.50;;;;;;4975808;28;20037;-82
2022/05/20 11:55:23;;;;;;;6.05;2.58;;;28.90;61.10;;;;;;4962112;28;20039;-83
2022/05/20 11:57:54;;;;;;;4.43;2.28;;;29.00;62.50;;;;;;4974479;28;20030;-83
2022/05/20 12:00:21;;;;;;;3.53;2.20;;;29.00;62.80;;;;;;4974614;28;20041;-82
2022/05/20 12:02:58;;;;;;;5.20;2.67;;;29.10;62.60;;;;;;4975028;28;20031;-83
2022/05/20 12:05:29;;;;;;;7.40;2.10;;;29.30;62.00;;;;;;4974563;28;20027;-83
2022/05/20 12:07:55;;;;;;;6.70;2.20;;;29.30;61.50;;;;;;4973975;28;20069;-83
2022/05/20 12:10:43;;;;;;;7.32;2.80;;;29.30;60.80;;;;;;4975443;28;20113;-83
2022/05/20 12:13:22;;;;;;;5.10;2.33;;;29.40;60.60;;;;;;4974535;28;20074;-83
2022/05/20 12:15:50;;;;;;;6.32;2.30;;;29.50;60.40;;;;;;4973530;28;20027;-82
2022/05/20 12:24:12;;;;;;;5.70;2.50;;;29.50;59.30;;;;;;4954838;29;20042;-83
2022/05/20 12:24:22;;;;;;;7.07;2.38;;;29.70;57.50;;;;;;4973407;28;20134;-83
2022/05/20 12:26:51;;;;;;;4.60;2.08;;;29.80;56.20;;;;;;4975449;28;20031;-83
2022/05/20 12:29:35;;;;;;;6.18;2.22;;;29.80;56.20;;;;;;4974355;28;20030;-83
2022/05/20 12:32:36;;;;;;;5.88;2.10;;;29.80;55.70;;;;;;4957261;28;20046;-83
2022/05/20 12:35:18;;;;;;;3.42;2.10;;;29.90;55.30;;;;;;4955002;29;20035;-83
2022/05/20 12:37:46;;;;;;;6.25;2.20;;;30.00;55.80;;;;;;4954473;28;20043;-83
2022/05/20 12:40:28;;;;;;;9.90;2.53;;;30.00;56.50;;;;;;4943301;28;20031;-83
2022/05/20 12:43:03;;;;;;;5.90;2.28;;;30.20;56.50;;;;;;4957931;28;20027;-83
2022/05/20 12:45:40;;;;;;;6.57;1.95;;;30.30;55.30;;;;;;4954435;29;20097;-83
2022/05/20 12:48:07;;;;;;;5.13;2.20;;;30.40;55.10;;;;;;4985847;28;20023;-83
2022/05/20 12:50:33;;;;;;;5.43;2.05;;;30.40;54.00;;;;;;4973796;28;20042;-83
2022/05/20 12:53:02;;;;;;;4.38;2.10;;;30.60;54.10;;;;;;4957754;28;20031;-83
2022/05/20 12:55:33;;;;;;;6.63;2.38;;;31.00;53.10;;;;;;4973238;28;20031;-82
2022/05/20 12:58:02;;;;;;;7.90;2.38;;;31.10;52.50;;;;;;4973468;28;20081;-83
2022/05/20 13:00:44;;;;;;;4.03;1.98;;;31.20;52.50;;;;;;4974098;28;20027;-83
2022/05/20 13:03:28;;;;;;;7.10;2.05;;;31.40;52.60;;;;;;4975281;28;20031;-83
2022/05/20 13:05:58;;;;;;;7.30;2.20;;;31.30;51.50;;;;;;4958261;28;20026;-83
2022/05/20 13:08:56;;;;;;;3.53;1.90;;;31.20;51.80;;;;;;4957508;28;20038;-82
2022/05/20 13:11:23;;;;;;;4.32;1.98;;;30.90;51.40;;;;;;4973544;28;20038;-83
2022/05/20 13:13:59;;;;;;;8.93;2.47;;;30.70;52.60;;;;;;4973757;28;20031;-82
2022/05/20 13:16:25;;;;;;;6.85;2.33;;;30.40;52.50;;;;;;4973674;28;20476;-82
2022/05/20 13:19:04;;;;;;;9.82;2.42;;;30.40;52.80;;;;;;4957978;28;20038;-82
2022/05/20 13:21:37;;;;;;;6.72;2.10;;;30.50;53.00;;;;;;4972697;28;20031;-82
2022/05/20 13:24:13;;;;;;;7.22;2.22;;;30.80;52.30;;;;;;4972638;28;20058;-82
2022/05/20 13:26:39;;;;;;;9.25;2.30;;;30.90;52.10;;;;;;4973316;28;20406;-83
2022/05/20 13:29:17;;;;;;;5.55;2.17;;;30.70;52.30;;;;;;4973444;28;20110;-83
2022/05/20 13:31:43;;;;;;;6.40;1.95;;;30.60;52.00;;;;;;4973512;28;20039;-82
2022/05/20 13:34:09;;;;;;;6.13;2.20;;;30.50;52.90;;;;;;4973697;28;20057;-82
2022/05/20 13:36:41;;;;;;;6.18;2.05;;;30.60;53.20;;;;;;4957031;28;20022;-83
2022/05/20 13:39:11;;;;;;;8.43;2.15;;;30.50;52.80;;;;;;4973653;28;20041;-83
2022/05/20 13:41:39;;;;;;;5.00;2.45;;;30.40;52.90;;;;;;4972785;28;20539;-82
2022/05/20 13:44:07;;;;;;;5.75;2.33;;;30.30;53.50;;;;;;4973605;28;20030;-83
2022/05/20 13:49:29;;;;;;;5.57;2.25;;;30.00;53.50;;;;;;4994045;28;20041;-83
2022/05/20 13:52:06;;;;;;;8.32;2.80;;;29.90;53.90;;;;;;4988527;28;20019;-83
2022/05/20 13:54:42;;;;;;;8.52;2.00;;;29.80;54.50;;;;;;4957358;28;20034;-83
2022/05/20 13:57:21;;;;;;;4.30;2.20;;;29.70;55.10;;;;;;4973423;28;20065;-83